Dobrodošli na spletni strani vremenske postaje Senovo. Vse informacije so informativnega značaja, saj vremenska postaja ni del državne mreže meteoroloških postaj. AKTUALNIH OBVESTIL NI.


Sneg/Led Od: 21-02-2018 00:00 Do: 23-02-2018 23:59 Opozorilo za: Sneg/Led Stopnja: Rumena info button
Veter Od: 21-02-2018 00:00 Do: 22-02-2018 23:59 Opozorilo za: Veter Stopnja: Rumena info button

Pogled proti Armezu več informacij Pogled proti Armezu


Lisca več informacij Lisca


Radar strel več informacij blitzortung!


opozorilo za sneg/led več informacij rain snow radar


Obiščite še:

Template documentation
and downloads

And another site



Weather Underground, zgodovina - Tekstovno

Dnevni povzetek za Januar 28, 2018 Enote:  Obe    Angleško   Metrično
« Predhodni Dan
Naslednji Dan »
Dnevni Tedenski Mesečni Letni Po meri
  Višja: Nižja: Povprečje:
Temperatura: TemperatureC °F /  -17.8 °C -0.4 °F /  -18 °C 2.9 °F /  -16.2 °C
Točka rosišča: DewpointC °F /  -17.8 °C -1.8 °F /  -18.8 °C 1.6 °F /  -16.9 °C
Vlažnost: Humidity % 87 % 91 %
Hitrost vetra: WindSpeedKMH mph /  0 km/h - 1.5 mph /  2.4 km/h
Sunki vetra: WindSpeedGustKMH mph /  0 km/h - -
Veter:- - SSW
Zračni tlak: PressurehPa in /  0 hPa 1030.0 in /  34875.8 hPa -
Padavine: 0.0 in /  0 mm    
Historical Graphs
 
 
Tabelarni podarki za Januar 28, 2018
Čas Temperatura Točka rosišča Zračni tlak Veter Hitrost vetra Sunki vetra Vlažnost Intenziteta padavin (urna)
TemperatureC °F /  -17.8 °C DewpointC °F /  -17.8 °C PressurehPa in /  0 hPa Calm     Humidity % HourlyPrecipMM in /  0 mm
00:04 3.0 °F /  -16.1 °C 1.7 °F /  -16.8 °C 1032.1 in /  34946.9 hPa East 1.9 mph /  3.1 km/h 4.7 mph /  7.6 km/h 91 % 0.0 in /  0 mm
00:09 3.0 °F /  -16.1 °C 1.7 °F /  -16.8 °C 1032.1 in /  34946.9 hPa East 2.3 mph /  3.7 km/h 4.7 mph /  7.6 km/h 91 % 0.0 in /  0 mm
00:14 3.0 °F /  -16.1 °C 1.7 °F /  -16.8 °C 1033.1 in /  34980.8 hPa East 2.9 mph /  4.7 km/h 6.9 mph /  11.1 km/h 91 % 0.0 in /  0 mm
00:19 3.0 °F /  -16.1 °C 1.7 °F /  -16.8 °C 1033.1 in /  34980.8 hPa East 2.9 mph /  4.7 km/h 6.9 mph /  11.1 km/h 91 % 0.0 in /  0 mm
00:24 3.0 °F /  -16.1 °C 1.7 °F /  -16.8 °C 1033.1 in /  34980.8 hPa East 3.4 mph /  5.5 km/h 6.1 mph /  9.8 km/h 91 % 0.0 in /  0 mm
00:29 2.9 °F /  -16.2 °C 1.6 °F /  -16.9 °C 1033.1 in /  34980.8 hPa East 3.9 mph /  6.3 km/h 6.1 mph /  9.8 km/h 91 % 0.0 in /  0 mm
00:34 2.9 °F /  -16.2 °C 1.6 °F /  -16.9 °C 1033.1 in /  34980.8 hPa East 3.7 mph /  6 km/h 6.1 mph /  9.8 km/h 91 % 0.0 in /  0 mm
00:39 2.9 °F /  -16.2 °C 1.6 °F /  -16.9 °C 1033.1 in /  34980.8 hPa East 3.9 mph /  6.3 km/h 6.4 mph /  10.3 km/h 91 % 0.0 in /  0 mm
00:44 2.9 °F /  -16.2 °C 1.6 °F /  -16.9 °C 1033.1 in /  34980.8 hPa East 4.0 mph /  6.4 km/h 6.4 mph /  10.3 km/h 91 % 0.0 in /  0 mm
00:49 2.9 °F /  -16.2 °C 1.6 °F /  -16.9 °C 1033.1 in /  34980.8 hPa East 4.0 mph /  6.4 km/h 6.1 mph /  9.8 km/h 91 % 0.0 in /  0 mm
00:54 2.9 °F /  -16.2 °C 1.6 °F /  -16.9 °C 1033.1 in /  34980.8 hPa East 4.0 mph /  6.4 km/h 6.1 mph /  9.8 km/h 91 % 0.0 in /  0 mm
00:59 2.9 °F /  -16.2 °C 1.6 °F /  -16.9 °C 1033.1 in /  34980.8 hPa East 3.9 mph /  6.3 km/h 6.1 mph /  9.8 km/h 91 % 0.0 in /  0 mm
01:04 2.9 °F /  -16.2 °C 1.6 °F /  -16.9 °C 1033.1 in /  34980.8 hPa East 3.9 mph /  6.3 km/h 6.1 mph /  9.8 km/h 91 % 0.0 in /  0 mm
01:09 2.9 °F /  -16.2 °C 1.6 °F /  -16.9 °C 1033.1 in /  34980.8 hPa East 3.5 mph /  5.6 km/h 5.8 mph /  9.3 km/h 91 % 0.0 in /  0 mm
01:14 2.9 °F /  -16.2 °C 1.6 °F /  -16.9 °C 1032.1 in /  34946.9 hPa ESE 2.1 mph /  3.4 km/h 4.7 mph /  7.6 km/h 91 % 0.0 in /  0 mm
01:19 2.9 °F /  -16.2 °C 1.6 °F /  -16.9 °C 1032.1 in /  34946.9 hPa East 2.1 mph /  3.4 km/h 4.7 mph /  7.6 km/h 91 % 0.0 in /  0 mm
01:24 2.8 °F /  -16.2 °C 1.5 °F /  -16.9 °C 1032.1 in /  34946.9 hPa East 2.4 mph /  3.9 km/h 4.7 mph /  7.6 km/h 91 % 0.0 in /  0 mm
01:29 2.9 °F /  -16.2 °C 1.6 °F /  -16.9 °C 1033.1 in /  34980.8 hPa East 2.1 mph /  3.4 km/h 5.5 mph /  8.9 km/h 91 % 0.0 in /  0 mm
01:34 2.9 °F /  -16.2 °C 1.6 °F /  -16.9 °C 1033.1 in /  34980.8 hPa ESE 3.1 mph /  5 km/h 5.8 mph /  9.3 km/h 91 % 0.0 in /  0 mm
01:39 2.8 °F /  -16.2 °C 1.5 °F /  -16.9 °C 1033.1 in /  34980.8 hPa East 2.7 mph /  4.3 km/h 5.8 mph /  9.3 km/h 91 % 0.0 in /  0 mm
01:44 2.8 °F /  -16.2 °C 1.5 °F /  -16.9 °C 1032.1 in /  34946.9 hPa East 2.6 mph /  4.2 km/h 5.5 mph /  8.9 km/h 91 % 0.0 in /  0 mm
01:49 2.8 °F /  -16.2 °C 1.5 °F /  -16.9 °C 1032.1 in /  34946.9 hPa East 3.9 mph /  6.3 km/h 7.6 mph /  12.2 km/h 91 % 0.0 in /  0 mm
01:54 2.8 °F /  -16.2 °C 1.5 °F /  -16.9 °C 1032.1 in /  34946.9 hPa East 3.5 mph /  5.6 km/h 7.6 mph /  12.2 km/h 91 % 0.0 in /  0 mm
01:59 2.8 °F /  -16.2 °C 1.5 °F /  -16.9 °C 1032.1 in /  34946.9 hPa East 2.7 mph /  4.3 km/h 5.5 mph /  8.9 km/h 91 % 0.0 in /  0 mm
02:02 2.8 °F /  -16.2 °C 1.5 °F /  -16.9 °C 1032.1 in /  34946.9 hPa East 2.7 mph /  4.3 km/h 5.5 mph /  8.9 km/h 91 % 0.0 in /  0 mm
02:07 2.8 °F /  -16.2 °C 1.5 °F /  -16.9 °C 1032.1 in /  34946.9 hPa East 2.3 mph /  3.7 km/h 5.0 mph /  8 km/h 91 % 0.0 in /  0 mm
02:12 2.8 °F /  -16.2 °C 1.5 °F /  -16.9 °C 1032.1 in /  34946.9 hPa ENE 2.3 mph /  3.7 km/h 5.0 mph /  8 km/h 91 % 0.0 in /  0 mm
02:17 2.8 °F /  -16.2 °C 1.5 °F /  -16.9 °C 1032.1 in /  34946.9 hPa NE 1.6 mph /  2.6 km/h 4.3 mph /  6.9 km/h 91 % 0.0 in /  0 mm
02:22 2.8 °F /  -16.2 °C 1.5 °F /  -16.9 °C 1032.1 in /  34946.9 hPa NE 0.5 mph /  0.8 km/h 3.5 mph /  5.6 km/h 91 % 0.0 in /  0 mm
02:27 2.8 °F /  -16.2 °C 1.5 °F /  -16.9 °C 1033.1 in /  34980.8 hPa Calm     91 % 0.0 in /  0 mm
02:32 2.8 °F /  -16.2 °C 1.5 °F /  -16.9 °C 1033.1 in /  34980.8 hPa Calm     91 % 0.0 in /  0 mm
02:37 2.8 °F /  -16.2 °C 1.5 °F /  -16.9 °C 1033.1 in /  34980.8 hPa Calm     91 % 0.0 in /  0 mm
02:42 2.8 °F /  -16.2 °C 1.5 °F /  -16.9 °C 1033.1 in /  34980.8 hPa Calm     91 % 0.0 in /  0 mm
02:47 2.8 °F /  -16.2 °C 1.5 °F /  -16.9 °C 1033.1 in /  34980.8 hPa Calm     91 % 0.0 in /  0 mm
02:52 2.8 °F /  -16.2 °C 1.5 °F /  -16.9 °C 1033.1 in /  34980.8 hPa Calm     91 % 0.0 in /  0 mm
02:57 2.8 °F /  -16.2 °C 1.5 °F /  -16.9 °C 1033.1 in /  34980.8 hPa Calm     91 % 0.0 in /  0 mm
03:02 2.8 °F /  -16.2 °C 1.5 °F /  -16.9 °C 1033.1 in /  34980.8 hPa Calm     91 % 0.0 in /  0 mm
03:07 2.8 °F /  -16.2 °C 1.5 °F /  -16.9 °C 1033.1 in /  34980.8 hPa Calm     91 % 0.0 in /  0 mm
03:12 2.8 °F /  -16.2 °C 1.5 °F /  -16.9 °C 1033.1 in /  34980.8 hPa Calm     91 % 0.0 in /  0 mm
03:17 2.8 °F /  -16.2 °C 1.5 °F /  -16.9 °C 1033.1 in /  34980.8 hPa Calm     91 % 0.0 in /  0 mm
03:22 2.8 °F /  -16.2 °C 1.5 °F /  -16.9 °C 1033.1 in /  34980.8 hPa Calm     91 % 0.0 in /  0 mm
03:27 2.8 °F /  -16.2 °C 1.5 °F /  -16.9 °C 1033.1 in /  34980.8 hPa Calm     91 % 0.0 in /  0 mm
03:32 2.8 °F /  -16.2 °C 1.5 °F /  -16.9 °C 1033.1 in /  34980.8 hPa Calm     91 % 0.0 in /  0 mm
03:37 2.8 °F /  -16.2 °C 1.5 °F /  -16.9 °C 1033.1 in /  34980.8 hPa Calm     91 % 0.0 in /  0 mm
03:42 2.8 °F /  -16.2 °C 1.5 °F /  -16.9 °C 1033.1 in /  34980.8 hPa Calm     91 % 0.0 in /  0 mm
03:47 2.8 °F /  -16.2 °C 1.5 °F /  -16.9 °C 1033.1 in /  34980.8 hPa Calm     91 % 0.0 in /  0 mm
03:52 2.8 °F /  -16.2 °C 1.5 °F /  -16.9 °C 1033.1 in /  34980.8 hPa Calm     91 % 0.0 in /  0 mm
03:57 2.8 °F /  -16.2 °C 1.6 °F /  -16.9 °C 1033.1 in /  34980.8 hPa Calm     92 % 0.0 in /  0 mm
04:02 2.8 °F /  -16.2 °C 1.6 °F /  -16.9 °C 1033.1 in /  34980.8 hPa SSW 0.3 mph /  0.5 km/h 4.0 mph /  6.4 km/h 92 % 0.0 in /  0 mm
04:07 2.8 °F /  -16.2 °C 1.6 °F /  -16.9 °C 1033.1 in /  34980.8 hPa SW 1.4 mph /  2.3 km/h 4.0 mph /  6.4 km/h 92 % 0.0 in /  0 mm
04:12 2.8 °F /  -16.2 °C 1.6 °F /  -16.9 °C 1033.1 in /  34980.8 hPa SW 1.9 mph /  3.1 km/h 4.0 mph /  6.4 km/h 92 % 0.0 in /  0 mm
04:17 2.8 °F /  -16.2 °C 1.6 °F /  -16.9 °C 1033.1 in /  34980.8 hPa SW 1.3 mph /  2.1 km/h 3.5 mph /  5.6 km/h 92 % 0.0 in /  0 mm
04:22 2.8 °F /  -16.2 °C 1.6 °F /  -16.9 °C 1033.1 in /  34980.8 hPa SW 1.4 mph /  2.3 km/h 3.2 mph /  5.1 km/h 92 % 0.0 in /  0 mm
04:27 2.8 °F /  -16.2 °C 1.6 °F /  -16.9 °C 1034.1 in /  35014.6 hPa SW 1.0 mph /  1.6 km/h 3.2 mph /  5.1 km/h 92 % 0.0 in /  0 mm
04:32 2.8 °F /  -16.2 °C 1.6 °F /  -16.9 °C 1034.1 in /  35014.6 hPa SSW 0.5 mph /  0.8 km/h 3.5 mph /  5.6 km/h 92 % 0.0 in /  0 mm
04:37 2.8 °F /  -16.2 °C 1.6 °F /  -16.9 °C 1034.1 in /  35014.6 hPa SSW 1.8 mph /  2.9 km/h 4.0 mph /  6.4 km/h 92 % 0.0 in /  0 mm
04:42 2.8 °F /  -16.2 °C 1.6 °F /  -16.9 °C 1033.1 in /  34980.8 hPa SW 2.9 mph /  4.7 km/h 4.0 mph /  6.4 km/h 92 % 0.0 in /  0 mm
04:47 2.8 °F /  -16.2 °C 1.6 °F /  -16.9 °C 1033.1 in /  34980.8 hPa SW 2.4 mph /  3.9 km/h 4.0 mph /  6.4 km/h 92 % 0.0 in /  0 mm
04:52 2.8 °F /  -16.2 °C 1.6 °F /  -16.9 °C 1033.1 in /  34980.8 hPa SW 1.8 mph /  2.9 km/h 4.0 mph /  6.4 km/h 92 % 0.0 in /  0 mm
04:57 2.8 °F /  -16.2 °C 1.6 °F /  -16.9 °C 1033.1 in /  34980.8 hPa SSW 1.1 mph /  1.8 km/h 3.2 mph /  5.1 km/h 92 % 0.0 in /  0 mm
05:02 2.8 °F /  -16.2 °C 1.6 °F /  -16.9 °C 1033.1 in /  34980.8 hPa SSW 1.4 mph /  2.3 km/h 4.0 mph /  6.4 km/h 92 % 0.0 in /  0 mm
05:07 2.8 °F /  -16.2 °C 1.6 °F /  -16.9 °C 1033.1 in /  34980.8 hPa SW 2.1 mph /  3.4 km/h 4.3 mph /  6.9 km/h 92 % 0.0 in /  0 mm
05:12 2.8 °F /  -16.2 °C 1.6 °F /  -16.9 °C 1033.1 in /  34980.8 hPa SW 1.1 mph /  1.8 km/h 4.3 mph /  6.9 km/h 92 % 0.0 in /  0 mm
05:17 2.8 °F /  -16.2 °C 1.6 °F /  -16.9 °C 1033.1 in /  34980.8 hPa SW 0.3 mph /  0.5 km/h 2.6 mph /  4.2 km/h 92 % 0.0 in /  0 mm
05:22 2.8 °F /  -16.2 °C 1.6 °F /  -16.9 °C 1033.1 in /  34980.8 hPa SW 0.2 mph /  0.3 km/h 2.6 mph /  4.2 km/h 92 % 0.0 in /  0 mm
05:27 2.9 °F /  -16.2 °C 1.7 °F /  -16.8 °C 1033.1 in /  34980.8 hPa Calm     92 % 0.0 in /  0 mm
05:33 2.8 °F /  -16.2 °C 1.6 °F /  -16.9 °C 1033.1 in /  34980.8 hPa Calm     92 % 0.0 in /  0 mm
05:38 2.9 °F /  -16.2 °C 1.7 °F /  -16.8 °C 1033.1 in /  34980.8 hPa Calm     92 % 0.0 in /  0 mm
05:43 2.9 °F /  -16.2 °C 1.7 °F /  -16.8 °C 1033.1 in /  34980.8 hPa Calm     92 % 0.0 in /  0 mm
05:48 2.9 °F /  -16.2 °C 1.7 °F /  -16.8 °C 1033.1 in /  34980.8 hPa Calm     92 % 0.0 in /  0 mm
05:53 2.9 °F /  -16.2 °C 1.7 °F /  -16.8 °C 1033.1 in /  34980.8 hPa Calm     92 % 0.0 in /  0 mm
05:58 2.9 °F /  -16.2 °C 1.7 °F /  -16.8 °C 1033.1 in /  34980.8 hPa Calm     92 % 0.0 in /  0 mm
06:03 2.9 °F /  -16.2 °C 1.9 °F /  -16.7 °C 1033.1 in /  34980.8 hPa Calm     93 % 0.0 in /  0 mm
06:08 2.9 °F /  -16.2 °C 1.9 °F /  -16.7 °C 1033.1 in /  34980.8 hPa Calm     93 % 0.0 in /  0 mm
06:13 2.9 °F /  -16.2 °C 1.9 °F /  -16.7 °C 1033.1 in /  34980.8 hPa Calm     93 % 0.0 in /  0 mm
06:18 2.9 °F /  -16.2 °C 1.9 °F /  -16.7 °C 1033.1 in /  34980.8 hPa Calm     93 % 0.0 in /  0 mm
06:23 2.9 °F /  -16.2 °C 1.9 °F /  -16.7 °C 1033.1 in /  34980.8 hPa Calm     93 % 0.0 in /  0 mm
06:28 2.9 °F /  -16.2 °C 1.9 °F /  -16.7 °C 1033.1 in /  34980.8 hPa Calm     93 % 0.0 in /  0 mm
06:33 3.0 °F /  -16.1 °C 1.8 °F /  -16.8 °C 1033.1 in /  34980.8 hPa South 0.5 mph /  0.8 km/h 4.7 mph /  7.6 km/h 92 % 0.0 in /  0 mm
06:38 3.0 °F /  -16.1 °C 2.0 °F /  -16.7 °C 1033.1 in /  34980.8 hPa South 0.6 mph /  1 km/h 4.7 mph /  7.6 km/h 93 % 0.0 in /  0 mm
06:43 3.0 °F /  -16.1 °C 2.0 °F /  -16.7 °C 1034.1 in /  35014.6 hPa North 0.2 mph /  0.3 km/h   93 % 0.0 in /  0 mm
06:48 3.0 °F /  -16.1 °C 2.0 °F /  -16.7 °C 1034.1 in /  35014.6 hPa Calm     93 % 0.0 in /  0 mm
06:53 3.0 °F /  -16.1 °C 2.0 °F /  -16.7 °C 1034.1 in /  35014.6 hPa Calm     93 % 0.0 in /  0 mm
06:58 3.0 °F /  -16.1 °C 2.0 °F /  -16.7 °C 1033.1 in /  34980.8 hPa Calm     93 % 0.0 in /  0 mm
07:03 3.0 °F /  -16.1 °C 2.0 °F /  -16.7 °C 1033.1 in /  34980.8 hPa Calm     93 % 0.0 in /  0 mm
07:08 3.0 °F /  -16.1 °C 2.0 °F /  -16.7 °C 1033.1 in /  34980.8 hPa SSE 0.3 mph /  0.5 km/h 4.0 mph /  6.4 km/h 93 % 0.0 in /  0 mm
07:13 3.0 °F /  -16.1 °C 2.0 °F /  -16.7 °C 1033.1 in /  34980.8 hPa SSE 1.4 mph /  2.3 km/h 4.3 mph /  6.9 km/h 93 % 0.0 in /  0 mm
07:18 3.0 °F /  -16.1 °C 2.0 °F /  -16.7 °C 1033.1 in /  34980.8 hPa SSE 1.6 mph /  2.6 km/h 4.3 mph /  6.9 km/h 93 % 0.0 in /  0 mm
07:23 3.0 °F /  -16.1 °C 2.0 °F /  -16.7 °C 1033.1 in /  34980.8 hPa SSE 0.8 mph /  1.3 km/h 4.0 mph /  6.4 km/h 93 % 0.0 in /  0 mm
07:28 3.0 °F /  -16.1 °C 2.0 °F /  -16.7 °C 1033.1 in /  34980.8 hPa SSE 1.0 mph /  1.6 km/h 4.0 mph /  6.4 km/h 93 % 0.0 in /  0 mm
07:33 3.0 °F /  -16.1 °C 2.0 °F /  -16.7 °C 1033.1 in /  34980.8 hPa SSE 0.6 mph /  1 km/h 4.0 mph /  6.4 km/h 93 % 0.0 in /  0 mm
07:38 3.0 °F /  -16.1 °C 2.0 °F /  -16.7 °C 1033.1 in /  34980.8 hPa Calm     93 % 0.0 in /  0 mm
07:43 3.1 °F /  -16.1 °C 2.1 °F /  -16.6 °C 1034.1 in /  35014.6 hPa Calm     93 % 0.0 in /  0 mm
07:48 3.1 °F /  -16.1 °C 2.1 °F /  -16.6 °C 1034.1 in /  35014.6 hPa Calm   3.5 mph /  5.6 km/h 93 % 0.0 in /  0 mm
07:53 3.1 °F /  -16.1 °C 2.1 °F /  -16.6 °C 1034.1 in /  35014.6 hPa South 0.2 mph /  0.3 km/h 3.5 mph /  5.6 km/h 93 % 0.0 in /  0 mm
07:58 3.1 °F /  -16.1 °C 2.1 °F /  -16.6 °C 1033.1 in /  34980.8 hPa South 0.2 mph /  0.3 km/h 2.6 mph /  4.2 km/h 93 % 0.0 in /  0 mm
08:03 3.1 °F /  -16.1 °C 2.1 °F /  -16.6 °C 1033.1 in /  34980.8 hPa SW 0.3 mph /  0.5 km/h 3.5 mph /  5.6 km/h 93 % 0.0 in /  0 mm
08:08 3.1 °F /  -16.1 °C 2.1 °F /  -16.6 °C 1033.1 in /  34980.8 hPa SW 0.3 mph /  0.5 km/h 3.5 mph /  5.6 km/h 93 % 0.0 in /  0 mm
08:13 3.1 °F /  -16.1 °C 2.1 °F /  -16.6 °C 1032.1 in /  34946.9 hPa SSE 0.2 mph /  0.3 km/h 2.6 mph /  4.2 km/h 93 % 0.0 in /  0 mm
08:18 3.1 °F /  -16.1 °C 2.1 °F /  -16.6 °C 1032.1 in /  34946.9 hPa WSW 0.8 mph /  1.3 km/h 5.5 mph /  8.9 km/h 93 % 0.0 in /  0 mm
08:23 3.2 °F /  -16 °C 2.2 °F /  -16.6 °C 1032.1 in /  34946.9 hPa WSW 0.8 mph /  1.3 km/h 5.5 mph /  8.9 km/h 93 % 0.0 in /  0 mm
08:28 3.2 °F /  -16 °C 2.3 °F /  -16.5 °C 1033.1 in /  34980.8 hPa SW 1.1 mph /  1.8 km/h 4.7 mph /  7.6 km/h 94 % 0.0 in /  0 mm
08:33 3.2 °F /  -16 °C 2.3 °F /  -16.5 °C 1033.1 in /  34980.8 hPa SSW 2.1 mph /  3.4 km/h 6.4 mph /  10.3 km/h 94 % 0.0 in /  0 mm
08:38 3.3 °F /  -15.9 °C 2.4 °F /  -16.4 °C 1033.1 in /  34980.8 hPa SSW 2.4 mph /  3.9 km/h 7.6 mph /  12.2 km/h 94 % 0.0 in /  0 mm
08:43 3.3 °F /  -15.9 °C 2.4 °F /  -16.4 °C 1032.1 in /  34946.9 hPa SW 3.4 mph /  5.5 km/h 7.6 mph /  12.2 km/h 94 % 0.0 in /  0 mm
08:48 3.3 °F /  -15.9 °C 2.4 °F /  -16.4 °C 1032.1 in /  34946.9 hPa WSW 4.2 mph /  6.8 km/h 6.4 mph /  10.3 km/h 94 % 0.0 in /  0 mm
08:53 3.3 °F /  -15.9 °C 2.4 °F /  -16.4 °C 1032.1 in /  34946.9 hPa West 4.2 mph /  6.8 km/h 6.4 mph /  10.3 km/h 94 % 0.0 in /  0 mm
08:59 3.3 °F /  -15.9 °C 2.4 °F /  -16.4 °C 1033.1 in /  34980.8 hPa WNW 2.9 mph /  4.7 km/h 6.4 mph /  10.3 km/h 94 % 0.0 in /  0 mm
09:04 3.3 °F /  -15.9 °C 2.4 °F /  -16.4 °C 1033.1 in /  34980.8 hPa West 2.1 mph /  3.4 km/h 7.6 mph /  12.2 km/h 94 % 0.0 in /  0 mm
09:09 3.4 °F /  -15.9 °C 2.5 °F /  -16.4 °C 1033.1 in /  34980.8 hPa West 2.9 mph /  4.7 km/h 7.6 mph /  12.2 km/h 94 % 0.0 in /  0 mm
09:14 3.4 °F /  -15.9 °C 2.5 °F /  -16.4 °C 1033.1 in /  34980.8 hPa WNW 2.4 mph /  3.9 km/h 6.4 mph /  10.3 km/h 94 % 0.0 in /  0 mm
09:19 3.4 °F /  -15.9 °C 2.5 °F /  -16.4 °C 1033.1 in /  34980.8 hPa WSW 2.3 mph /  3.7 km/h 6.4 mph /  10.3 km/h 94 % 0.0 in /  0 mm
09:24 3.4 °F /  -15.9 °C 2.5 °F /  -16.4 °C 1033.1 in /  34980.8 hPa WSW 2.6 mph /  4.2 km/h 5.5 mph /  8.9 km/h 94 % 0.0 in /  0 mm
09:29 3.5 °F /  -15.8 °C 2.6 °F /  -16.3 °C 1033.1 in /  34980.8 hPa West 2.9 mph /  4.7 km/h 5.0 mph /  8 km/h 94 % 0.0 in /  0 mm
09:34 3.5 °F /  -15.8 °C 2.6 °F /  -16.3 °C 1033.1 in /  34980.8 hPa West 2.3 mph /  3.7 km/h 5.5 mph /  8.9 km/h 94 % 0.0 in /  0 mm
09:39 3.5 °F /  -15.8 °C 2.6 °F /  -16.3 °C 1033.1 in /  34980.8 hPa WSW 1.1 mph /  1.8 km/h 5.5 mph /  8.9 km/h 94 % 0.0 in /  0 mm
09:44 3.6 °F /  -15.8 °C 2.7 °F /  -16.3 °C 1033.1 in /  34980.8 hPa SW 1.4 mph /  2.3 km/h 4.3 mph /  6.9 km/h 94 % 0.0 in /  0 mm
09:49 3.6 °F /  -15.8 °C 2.7 °F /  -16.3 °C 1033.1 in /  34980.8 hPa SW 1.4 mph /  2.3 km/h 4.3 mph /  6.9 km/h 94 % 0.0 in /  0 mm
09:54 3.6 °F /  -15.8 °C 2.7 °F /  -16.3 °C 1033.1 in /  34980.8 hPa SW 2.6 mph /  4.2 km/h 6.9 mph /  11.1 km/h 94 % 0.0 in /  0 mm
09:59 3.7 °F /  -15.7 °C 2.8 °F /  -16.2 °C 1033.1 in /  34980.8 hPa SW 4.2 mph /  6.8 km/h 6.9 mph /  11.1 km/h 94 % 0.0 in /  0 mm
10:04 3.7 °F /  -15.7 °C 2.8 °F /  -16.2 °C 1033.1 in /  34980.8 hPa SW 3.1 mph /  5 km/h 6.1 mph /  9.8 km/h 94 % 0.0 in /  0 mm
10:09 3.7 °F /  -15.7 °C 2.8 °F /  -16.2 °C 1033.1 in /  34980.8 hPa SW 1.6 mph /  2.6 km/h 4.7 mph /  7.6 km/h 94 % 0.0 in /  0 mm
10:14 3.7 °F /  -15.7 °C 2.8 °F /  -16.2 °C 1033.1 in /  34980.8 hPa WSW 0.8 mph /  1.3 km/h 5.0 mph /  8 km/h 94 % 0.0 in /  0 mm
10:19 3.8 °F /  -15.7 °C 2.9 °F /  -16.2 °C 1033.1 in /  34980.8 hPa SW 1.6 mph /  2.6 km/h 5.8 mph /  9.3 km/h 94 % 0.0 in /  0 mm
10:24 3.8 °F /  -15.7 °C 2.9 °F /  -16.2 °C 1033.1 in /  34980.8 hPa South 2.9 mph /  4.7 km/h 6.9 mph /  11.1 km/h 94 % 0.0 in /  0 mm
10:29 3.8 °F /  -15.7 °C 2.9 °F /  -16.2 °C 1033.1 in /  34980.8 hPa SW 3.9 mph /  6.3 km/h 9.0 mph /  14.5 km/h 94 % 0.0 in /  0 mm
10:34 3.8 °F /  -15.7 °C 2.9 °F /  -16.2 °C 1033.1 in /  34980.8 hPa SW 5.1 mph /  8.2 km/h 9.0 mph /  14.5 km/h 94 % 0.0 in /  0 mm
10:39 3.9 °F /  -15.6 °C 3.0 °F /  -16.1 °C 1033.1 in /  34980.8 hPa SW 3.5 mph /  5.6 km/h 6.4 mph /  10.3 km/h 94 % 0.0 in /  0 mm
10:44 3.9 °F /  -15.6 °C 3.0 °F /  -16.1 °C 1034.1 in /  35014.6 hPa West 2.4 mph /  3.9 km/h 5.8 mph /  9.3 km/h 94 % 0.0 in /  0 mm
10:49 4.0 °F /  -15.6 °C 3.1 °F /  -16.1 °C 1034.1 in /  35014.6 hPa NW 1.6 mph /  2.6 km/h 5.8 mph /  9.3 km/h 94 % 0.0 in /  0 mm
10:54 4.0 °F /  -15.6 °C 3.1 °F /  -16.1 °C 1034.1 in /  35014.6 hPa WNW 1.8 mph /  2.9 km/h 6.9 mph /  11.1 km/h 94 % 0.0 in /  0 mm
10:59 4.0 °F /  -15.6 °C 3.1 °F /  -16.1 °C 1033.1 in /  34980.8 hPa WNW 4.0 mph /  6.4 km/h 7.9 mph /  12.7 km/h 94 % 0.0 in /  0 mm
11:04 4.1 °F /  -15.5 °C 3.2 °F /  -16 °C 1033.1 in /  34980.8 hPa West 4.2 mph /  6.8 km/h 9.3 mph /  15 km/h 94 % 0.0 in /  0 mm
11:09 4.1 °F /  -15.5 °C 3.2 °F /  -16 °C 1033.1 in /  34980.8 hPa SW 4.3 mph /  6.9 km/h 9.7 mph /  15.6 km/h 94 % 0.0 in /  0 mm
11:14 4.2 °F /  -15.4 °C 3.3 °F /  -15.9 °C 1034.1 in /  35014.6 hPa SSW 5.0 mph /  8 km/h 9.7 mph /  15.6 km/h 94 % 0.0 in /  0 mm
11:19 4.2 °F /  -15.4 °C 3.3 °F /  -15.9 °C 1034.1 in /  35014.6 hPa SW 5.3 mph /  8.5 km/h 10.5 mph /  16.9 km/h 94 % 0.0 in /  0 mm
11:24 4.3 °F /  -15.4 °C 3.4 °F /  -15.9 °C 1034.1 in /  35014.6 hPa SW 6.0 mph /  9.7 km/h 10.5 mph /  16.9 km/h 94 % 0.0 in /  0 mm
11:29 4.3 °F /  -15.4 °C 3.4 °F /  -15.9 °C 1033.1 in /  34980.8 hPa SW 5.5 mph /  8.9 km/h 9.7 mph /  15.6 km/h 94 % 0.0 in /  0 mm
11:34 4.4 °F /  -15.3 °C 3.5 °F /  -15.8 °C 1033.1 in /  34980.8 hPa WSW 4.3 mph /  6.9 km/h 9.3 mph /  15 km/h 94 % 0.0 in /  0 mm
11:39 4.4 °F /  -15.3 °C 3.5 °F /  -15.8 °C 1033.1 in /  34980.8 hPa SW 4.3 mph /  6.9 km/h 7.2 mph /  11.6 km/h 94 % 0.0 in /  0 mm
11:44 4.5 °F /  -15.3 °C 3.6 °F /  -15.8 °C 1033.1 in /  34980.8 hPa SW 5.0 mph /  8 km/h 7.9 mph /  12.7 km/h 94 % 0.0 in /  0 mm
11:49 4.6 °F /  -15.2 °C 3.7 °F /  -15.7 °C 1033.1 in /  34980.8 hPa SW 5.6 mph /  9 km/h 10.5 mph /  16.9 km/h 94 % 0.0 in /  0 mm
11:54 4.6 °F /  -15.2 °C 3.7 °F /  -15.7 °C 1033.1 in /  34980.8 hPa SW 5.8 mph /  9.3 km/h 10.5 mph /  16.9 km/h 94 % 0.0 in /  0 mm
11:59 4.6 °F /  -15.2 °C 3.7 °F /  -15.7 °C 1032.1 in /  34946.9 hPa WSW 4.8 mph /  7.7 km/h 10.5 mph /  16.9 km/h 94 % 0.0 in /  0 mm
12:04 4.6 °F /  -15.2 °C 3.7 °F /  -15.7 °C 1032.1 in /  34946.9 hPa West 4.3 mph /  6.9 km/h 10.5 mph /  16.9 km/h 94 % 0.0 in /  0 mm
12:09 4.6 °F /  -15.2 °C 3.7 °F /  -15.7 °C 1032.1 in /  34946.9 hPa WSW 3.2 mph /  5.1 km/h 9.0 mph /  14.5 km/h 94 % 0.0 in /  0 mm
12:14 4.7 °F /  -15.2 °C 3.8 °F /  -15.7 °C 1033.1 in /  34980.8 hPa SW 3.1 mph /  5 km/h 6.9 mph /  11.1 km/h 94 % 0.0 in /  0 mm
12:19 4.7 °F /  -15.2 °C 3.8 °F /  -15.7 °C 1033.1 in /  34980.8 hPa SW 4.0 mph /  6.4 km/h 10.5 mph /  16.9 km/h 94 % 0.0 in /  0 mm
12:24 4.8 °F /  -15.1 °C 3.9 °F /  -15.6 °C 1033.1 in /  34980.8 hPa WSW 4.8 mph /  7.7 km/h 10.5 mph /  16.9 km/h 94 % 0.0 in /  0 mm
12:29 4.8 °F /  -15.1 °C 3.9 °F /  -15.6 °C 1033.1 in /  34980.8 hPa WSW 5.6 mph /  9 km/h 12.6 mph /  20.3 km/h 94 % 0.0 in /  0 mm
12:34 4.8 °F /  -15.1 °C 3.9 °F /  -15.6 °C 1033.1 in /  34980.8 hPa West 4.0 mph /  6.4 km/h 12.6 mph /  20.3 km/h 94 % 0.0 in /  0 mm
12:36 4.8 °F /  -15.1 °C 3.9 °F /  -15.6 °C 1033.1 in /  34980.8 hPa WNW 3.2 mph /  5.1 km/h 7.9 mph /  12.7 km/h 94 % 0.0 in /  0 mm
12:41 4.9 °F /  -15.1 °C 4.0 °F /  -15.6 °C 1033.1 in /  34980.8 hPa WNW 2.9 mph /  4.7 km/h 6.9 mph /  11.1 km/h 94 % 0.0 in /  0 mm
12:46 5.0 °F /  -15 °C 3.9 °F /  -15.6 °C 1033.1 in /  34980.8 hPa West 3.1 mph /  5 km/h 6.9 mph /  11.1 km/h 93 % 0.0 in /  0 mm
12:51 5.0 °F /  -15 °C 3.9 °F /  -15.6 °C 1033.1 in /  34980.8 hPa West 4.7 mph /  7.6 km/h 12.2 mph /  19.6 km/h 93 % 0.0 in /  0 mm
12:56 5.1 °F /  -14.9 °C 4.1 °F /  -15.5 °C 1033.1 in /  34980.8 hPa West 5.1 mph /  8.2 km/h 12.2 mph /  19.6 km/h 93 % 0.0 in /  0 mm
13:01 5.2 °F /  -14.9 °C 4.2 °F /  -15.4 °C 1033.1 in /  34980.8 hPa WSW 3.2 mph /  5.1 km/h 7.6 mph /  12.2 km/h 93 % 0.0 in /  0 mm
13:06 5.3 °F /  -14.8 °C 4.3 °F /  -15.4 °C 1033.1 in /  34980.8 hPa SW 1.8 mph /  2.9 km/h 6.1 mph /  9.8 km/h 93 % 0.0 in /  0 mm
13:11 5.4 °F /  -14.8 °C 4.3 °F /  -15.4 °C 1034.1 in /  35014.6 hPa West 2.9 mph /  4.7 km/h 7.6 mph /  12.2 km/h 93 % 0.0 in /  0 mm
13:16 5.5 °F /  -14.7 °C 4.4 °F /  -15.3 °C 1034.1 in /  35014.6 hPa SW 4.8 mph /  7.7 km/h 10.1 mph /  16.3 km/h 93 % 0.0 in /  0 mm
13:21 5.5 °F /  -14.7 °C 4.4 °F /  -15.3 °C 1034.1 in /  35014.6 hPa SSW 5.5 mph /  8.9 km/h 10.1 mph /  16.3 km/h 93 % 0.0 in /  0 mm
13:26 5.5 °F /  -14.7 °C 4.4 °F /  -15.3 °C 1032.1 in /  34946.9 hPa SW 4.8 mph /  7.7 km/h 9.0 mph /  14.5 km/h 93 % 0.0 in /  0 mm
13:31 5.5 °F /  -14.7 °C 4.4 °F /  -15.3 °C 1032.1 in /  34946.9 hPa West 4.0 mph /  6.4 km/h 9.0 mph /  14.5 km/h 93 % 0.0 in /  0 mm
13:36 5.4 °F /  -14.8 °C 4.3 °F /  -15.4 °C 1032.1 in /  34946.9 hPa West 4.0 mph /  6.4 km/h 7.9 mph /  12.7 km/h 93 % 0.0 in /  0 mm
13:41 5.4 °F /  -14.8 °C 4.3 °F /  -15.4 °C 1032.1 in /  34946.9 hPa WSW 5.3 mph /  8.5 km/h 9.7 mph /  15.6 km/h 93 % 0.0 in /  0 mm
13:46 5.4 °F /  -14.8 °C 4.2 °F /  -15.4 °C 1032.1 in /  34946.9 hPa SW 5.3 mph /  8.5 km/h 9.7 mph /  15.6 km/h 92 % 0.0 in /  0 mm
13:51 5.4 °F /  -14.8 °C 4.2 °F /  -15.4 °C 1032.1 in /  34946.9 hPa SW 4.8 mph /  7.7 km/h 8.7 mph /  14 km/h 92 % 0.0 in /  0 mm
13:56 5.4 °F /  -14.8 °C 4.2 °F /  -15.4 °C 1032.1 in /  34946.9 hPa SW 4.3 mph /  6.9 km/h 8.7 mph /  14 km/h 92 % 0.0 in /  0 mm
14:01 5.4 °F /  -14.8 °C 4.2 °F /  -15.4 °C 1032.1 in /  34946.9 hPa West 2.9 mph /  4.7 km/h 5.8 mph /  9.3 km/h 92 % 0.0 in /  0 mm
14:06 5.4 °F /  -14.8 °C 4.2 °F /  -15.4 °C 1032.1 in /  34946.9 hPa WNW 1.8 mph /  2.9 km/h 6.1 mph /  9.8 km/h 92 % 0.0 in /  0 mm
14:11 5.4 °F /  -14.8 °C 4.2 °F /  -15.4 °C 1032.1 in /  34946.9 hPa WSW 3.1 mph /  5 km/h 7.6 mph /  12.2 km/h 92 % 0.0 in /  0 mm
14:16 5.5 °F /  -14.7 °C 4.3 °F /  -15.4 °C 1032.1 in /  34946.9 hPa West 4.5 mph /  7.2 km/h 9.3 mph /  15 km/h 92 % 0.0 in /  0 mm
14:21 5.4 °F /  -14.8 °C 4.2 °F /  -15.4 °C 1032.1 in /  34946.9 hPa WNW 4.7 mph /  7.6 km/h 9.3 mph /  15 km/h 92 % 0.0 in /  0 mm
14:26 5.5 °F /  -14.7 °C 4.2 °F /  -15.4 °C 1032.1 in /  34946.9 hPa WNW 3.9 mph /  6.3 km/h 7.6 mph /  12.2 km/h 91 % 0.0 in /  0 mm
14:31 5.4 °F /  -14.8 °C 4.1 °F /  -15.5 °C 1032.1 in /  34946.9 hPa NW 3.5 mph /  5.6 km/h 7.6 mph /  12.2 km/h 91 % 0.0 in /  0 mm
14:36 5.6 °F /  -14.7 °C 4.2 °F /  -15.4 °C 1032.1 in /  34946.9 hPa NNW 3.2 mph /  5.1 km/h 5.8 mph /  9.3 km/h 91 % 0.0 in /  0 mm
14:41 5.6 °F /  -14.7 °C 4.2 °F /  -15.4 °C 1031.0 in /  34909.7 hPa NW 2.9 mph /  4.7 km/h 7.2 mph /  11.6 km/h 91 % 0.0 in /  0 mm
14:46 5.7 °F /  -14.6 °C 4.3 °F /  -15.4 °C 1031.0 in /  34909.7 hPa NW 3.1 mph /  5 km/h 7.2 mph /  11.6 km/h 91 % 0.0 in /  0 mm
14:51 5.8 °F /  -14.6 °C 4.4 °F /  -15.3 °C 1031.0 in /  34909.7 hPa WSW 3.1 mph /  5 km/h 7.9 mph /  12.7 km/h 91 % 0.0 in /  0 mm
14:56 5.9 °F /  -14.5 °C 4.6 °F /  -15.2 °C 1031.0 in /  34909.7 hPa WSW 3.5 mph /  5.6 km/h 7.9 mph /  12.7 km/h 91 % 0.0 in /  0 mm
15:01 5.9 °F /  -14.5 °C 4.6 °F /  -15.2 °C 1031.0 in /  34909.7 hPa SW 2.6 mph /  4.2 km/h 5.8 mph /  9.3 km/h 91 % 0.0 in /  0 mm
15:06 5.9 °F /  -14.5 °C 4.6 °F /  -15.2 °C 1031.0 in /  34909.7 hPa SSW 3.7 mph /  6 km/h 6.1 mph /  9.8 km/h 91 % 0.0 in /  0 mm
15:11 5.9 °F /  -14.5 °C 4.4 °F /  -15.3 °C 1031.0 in /  34909.7 hPa SW 5.0 mph /  8 km/h 6.9 mph /  11.1 km/h 90 % 0.0 in /  0 mm
15:16 5.8 °F /  -14.6 °C 4.3 °F /  -15.4 °C 1031.0 in /  34909.7 hPa SW 4.8 mph /  7.7 km/h 6.9 mph /  11.1 km/h 90 % 0.0 in /  0 mm
15:21 5.8 °F /  -14.6 °C 4.3 °F /  -15.4 °C 1031.0 in /  34909.7 hPa SSW 4.7 mph /  7.6 km/h 6.4 mph /  10.3 km/h 90 % 0.0 in /  0 mm
15:26 5.8 °F /  -14.6 °C 4.3 °F /  -15.4 °C 1031.0 in /  34909.7 hPa SSW 4.5 mph /  7.2 km/h 6.4 mph /  10.3 km/h 90 % 0.0 in /  0 mm
15:31 5.8 °F /  -14.6 °C 4.3 °F /  -15.4 °C 1031.0 in /  34909.7 hPa SW 3.5 mph /  5.6 km/h 6.4 mph /  10.3 km/h 90 % 0.0 in /  0 mm
15:37 5.8 °F /  -14.6 °C 4.1 °F /  -15.5 °C 1031.0 in /  34909.7 hPa SW 2.7 mph /  4.3 km/h 4.7 mph /  7.6 km/h 89 % 0.0 in /  0 mm
15:42 5.8 °F /  -14.6 °C 4.1 °F /  -15.5 °C 1031.0 in /  34909.7 hPa SW 1.9 mph /  3.1 km/h 4.0 mph /  6.4 km/h 89 % 0.0 in /  0 mm
15:47 5.8 °F /  -14.6 °C 4.1 °F /  -15.5 °C 1031.0 in /  34909.7 hPa SW 1.0 mph /  1.6 km/h 3.2 mph /  5.1 km/h 89 % 0.0 in /  0 mm
15:52 5.8 °F /  -14.6 °C 4.1 °F /  -15.5 °C 1031.0 in /  34909.7 hPa SW 0.3 mph /  0.5 km/h 3.2 mph /  5.1 km/h 89 % 0.0 in /  0 mm
15:57 5.7 °F /  -14.6 °C 4.0 °F /  -15.6 °C 1031.0 in /  34909.7 hPa SE 0.2 mph /  0.3 km/h 3.2 mph /  5.1 km/h 89 % 0.0 in /  0 mm
16:02 5.7 °F /  -14.6 °C 4.0 °F /  -15.6 °C 1031.0 in /  34909.7 hPa SE 0.3 mph /  0.5 km/h 3.2 mph /  5.1 km/h 89 % 0.0 in /  0 mm
16:07 5.6 °F /  -14.7 °C 3.8 °F /  -15.7 °C 1031.0 in /  34909.7 hPa SSE 0.2 mph /  0.3 km/h 2.1 mph /  3.4 km/h 88 % 0.0 in /  0 mm
16:12 5.5 °F /  -14.7 °C 3.7 °F /  -15.7 °C 1031.0 in /  34909.7 hPa Calm   2.1 mph /  3.4 km/h 88 % 0.0 in /  0 mm
16:17 5.4 °F /  -14.8 °C 3.6 °F /  -15.8 °C 1031.0 in /  34909.7 hPa Calm   1.4 mph /  2.3 km/h 88 % 0.0 in /  0 mm
16:22 5.3 °F /  -14.8 °C 3.5 °F /  -15.8 °C 1031.0 in /  34909.7 hPa Calm     88 % 0.0 in /  0 mm
16:27 5.1 °F /  -14.9 °C 3.3 °F /  -15.9 °C 1031.0 in /  34909.7 hPa Calm     88 % 0.0 in /  0 mm
16:32 5.0 °F /  -15 °C 3.2 °F /  -16 °C 1031.0 in /  34909.7 hPa Calm     88 % 0.0 in /  0 mm
16:37 4.9 °F /  -15.1 °C 3.1 °F /  -16.1 °C 1031.0 in /  34909.7 hPa SW 0.2 mph /  0.3 km/h 4.3 mph /  6.9 km/h 88 % 0.0 in /  0 mm
16:42 4.7 °F /  -15.2 °C 2.9 °F /  -16.2 °C 1031.0 in /  34909.7 hPa SW 2.1 mph /  3.4 km/h 5.5 mph /  8.9 km/h 88 % 0.0 in /  0 mm
16:47 4.4 °F /  -15.3 °C 2.6 °F /  -16.3 °C 1031.0 in /  34909.7 hPa WSW 2.1 mph /  3.4 km/h 5.5 mph /  8.9 km/h 88 % 0.0 in /  0 mm
16:52 4.3 °F /  -15.4 °C 2.5 °F /  -16.4 °C 1031.0 in /  34909.7 hPa North 0.3 mph /  0.5 km/h 2.6 mph /  4.2 km/h 88 % 0.0 in /  0 mm
16:57 4.1 °F /  -15.5 °C 2.1 °F /  -16.6 °C 1031.0 in /  34909.7 hPa Calm     87 % 0.0 in /  0 mm
17:02 3.9 °F /  -15.6 °C 2.1 °F /  -16.6 °C 1031.0 in /  34909.7 hPa SW 0.2 mph /  0.3 km/h 2.6 mph /  4.2 km/h 88 % 0.0 in /  0 mm
17:07 3.6 °F /  -15.8 °C 1.8 °F /  -16.8 °C 1031.0 in /  34909.7 hPa WNW 0.3 mph /  0.5 km/h 2.6 mph /  4.2 km/h 88 % 0.0 in /  0 mm
17:12 3.5 °F /  -15.8 °C 1.7 °F /  -16.8 °C 1031.0 in /  34909.7 hPa NW 0.3 mph /  0.5 km/h 2.6 mph /  4.2 km/h 88 % 0.0 in /  0 mm
17:17 3.3 °F /  -15.9 °C 1.3 °F /  -17.1 °C 1031.0 in /  34909.7 hPa Calm     87 % 0.0 in /  0 mm
17:22 3.1 °F /  -16.1 °C 1.2 °F /  -17.1 °C 1031.0 in /  34909.7 hPa NW 0.3 mph /  0.5 km/h 3.5 mph /  5.6 km/h 87 % 0.0 in /  0 mm
17:27 2.9 °F /  -16.2 °C 1.1 °F /  -17.2 °C 1031.0 in /  34909.7 hPa NW 0.3 mph /  0.5 km/h 3.5 mph /  5.6 km/h 88 % 0.0 in /  0 mm
17:32 2.8 °F /  -16.2 °C 1.0 °F /  -17.2 °C 1031.0 in /  34909.7 hPa Calm     88 % 0.0 in /  0 mm
17:37 2.6 °F /  -16.3 °C 0.8 °F /  -17.3 °C 1031.0 in /  34909.7 hPa Calm     88 % 0.0 in /  0 mm
17:42 2.5 °F /  -16.4 °C 0.7 °F /  -17.4 °C 1031.0 in /  34909.7 hPa Calm     88 % 0.0 in /  0 mm
17:47 2.4 °F /  -16.4 °C 0.6 °F /  -17.4 °C 1031.0 in /  34909.7 hPa WSW 0.2 mph /  0.3 km/h 2.6 mph /  4.2 km/h 88 % 0.0 in /  0 mm
17:52 2.2 °F /  -16.6 °C 0.3 °F /  -17.6 °C 1031.0 in /  34909.7 hPa WSW 0.2 mph /  0.3 km/h 2.6 mph /  4.2 km/h 87 % 0.0 in /  0 mm
17:57 2.0 °F /  -16.7 °C 0.1 °F /  -17.7 °C 1031.0 in /  34909.7 hPa WSW 0.2 mph /  0.3 km/h 3.2 mph /  5.1 km/h 87 % 0.0 in /  0 mm
18:02 2.0 °F /  -16.7 °C 0.1 °F /  -17.7 °C 1031.0 in /  34909.7 hPa WSW 0.3 mph /  0.5 km/h 3.2 mph /  5.1 km/h 87 % 0.0 in /  0 mm
18:07 1.9 °F /  -16.7 °C 0.1 °F /  -17.7 °C 1031.0 in /  34909.7 hPa North 0.2 mph /  0.3 km/h   88 % 0.0 in /  0 mm
18:12 1.7 °F /  -16.8 °C -0.1 °F /  -17.8 °C 1031.0 in /  34909.7 hPa Calm     88 % 0.0 in /  0 mm
18:17 1.7 °F /  -16.8 °C -0.1 °F /  -17.8 °C 1031.0 in /  34909.7 hPa Calm     88 % 0.0 in /  0 mm
18:22 1.6 °F /  -16.9 °C -0.2 °F /  -17.9 °C 1031.0 in /  34909.7 hPa Calm     88 % 0.0 in /  0 mm
18:27 1.4 °F /  -17 °C -0.4 °F /  -18 °C 1031.0 in /  34909.7 hPa Calm     88 % 0.0 in /  0 mm
18:32 1.3 °F /  -17.1 °C -0.4 °F /  -18 °C 1031.0 in /  34909.7 hPa Calm     88 % 0.0 in /  0 mm
18:37 1.2 °F /  -17.1 °C -0.6 °F /  -18.1 °C 1031.0 in /  34909.7 hPa Calm     88 % 0.0 in /  0 mm
18:42 1.1 °F /  -17.2 °C -0.7 °F /  -18.2 °C 1031.0 in /  34909.7 hPa Calm     88 % 0.0 in /  0 mm
18:47 1.1 °F /  -17.2 °C -0.7 °F /  -18.2 °C 1031.0 in /  34909.7 hPa Calm     88 % 0.0 in /  0 mm
18:52 1.0 °F /  -17.2 °C -0.8 °F /  -18.2 °C 1031.0 in /  34909.7 hPa NW 0.3 mph /  0.5 km/h 3.2 mph /  5.1 km/h 88 % 0.0 in /  0 mm
18:57 0.9 °F /  -17.3 °C -0.9 °F /  -18.3 °C 1031.0 in /  34909.7 hPa NW 0.3 mph /  0.5 km/h 3.2 mph /  5.1 km/h 88 % 0.0 in /  0 mm
19:02 0.8 °F /  -17.3 °C -0.9 °F /  -18.3 °C 1031.0 in /  34909.7 hPa Calm     88 % 0.0 in /  0 mm
19:07 0.8 °F /  -17.3 °C -0.9 °F /  -18.3 °C 1031.0 in /  34909.7 hPa Calm     88 % 0.0 in /  0 mm
19:12 0.8 °F /  -17.3 °C -0.9 °F /  -18.3 °C 1031.0 in /  34909.7 hPa Calm     88 % 0.0 in /  0 mm
19:18 0.7 °F /  -17.4 °C -0.9 °F /  -18.3 °C 1031.0 in /  34909.7 hPa Calm     89 % 0.0 in /  0 mm
19:23 0.6 °F /  -17.4 °C -1.0 °F /  -18.3 °C 1031.0 in /  34909.7 hPa Calm     89 % 0.0 in /  0 mm
19:28 0.6 °F /  -17.4 °C -1.0 °F /  -18.3 °C 1031.0 in /  34909.7 hPa Calm   2.1 mph /  3.4 km/h 89 % 0.0 in /  0 mm
19:33 0.6 °F /  -17.4 °C -1.0 °F /  -18.3 °C 1031.0 in /  34909.7 hPa Calm   2.1 mph /  3.4 km/h 89 % 0.0 in /  0 mm
19:38 0.5 °F /  -17.5 °C -1.1 °F /  -18.4 °C 1031.0 in /  34909.7 hPa Calm     89 % 0.0 in /  0 mm
19:43 0.5 °F /  -17.5 °C -1.1 °F /  -18.4 °C 1031.0 in /  34909.7 hPa Calm     89 % 0.0 in /  0 mm
19:48 0.4 °F /  -17.6 °C -1.2 °F /  -18.4 °C 1031.0 in /  34909.7 hPa Calm     89 % 0.0 in /  0 mm
19:53 0.4 °F /  -17.6 °C -1.2 °F /  -18.4 °C 1031.0 in /  34909.7 hPa Calm     89 % 0.0 in /  0 mm
19:58 0.3 °F /  -17.6 °C -1.3 °F /  -18.5 °C 1031.0 in /  34909.7 hPa Calm     89 % 0.0 in /  0 mm
20:03 0.3 °F /  -17.6 °C -1.3 °F /  -18.5 °C 1031.0 in /  34909.7 hPa Calm     89 % 0.0 in /  0 mm
20:08 0.2 °F /  -17.7 °C -1.4 °F /  -18.6 °C 1031.0 in /  34909.7 hPa Calm     89 % 0.0 in /  0 mm
20:13 0.2 °F /  -17.7 °C -1.4 °F /  -18.6 °C 1032.1 in /  34946.9 hPa Calm     89 % 0.0 in /  0 mm
20:18 0.1 °F /  -17.7 °C -1.5 °F /  -18.6 °C 1032.1 in /  34946.9 hPa Calm     89 % 0.0 in /  0 mm
20:23 0.1 °F /  -17.7 °C -1.5 °F /  -18.6 °C 1032.1 in /  34946.9 hPa Calm     89 % 0.0 in /  0 mm
20:28 0.1 °F /  -17.7 °C -1.5 °F /  -18.6 °C 1032.1 in /  34946.9 hPa Calm     89 % 0.0 in /  0 mm
20:33 0.0 °F /  -17.8 °C -1.6 °F /  -18.7 °C 1032.1 in /  34946.9 hPa Calm     89 % 0.0 in /  0 mm
20:38 0.0 °F /  -17.8 °C -1.6 °F /  -18.7 °C 1032.1 in /  34946.9 hPa Calm     89 % 0.0 in /  0 mm
20:43 0.0 °F /  -17.8 °C -1.6 °F /  -18.7 °C 1032.1 in /  34946.9 hPa Calm     89 % 0.0 in /  0 mm
20:48 -0.1 °F /  -17.8 °C -1.7 °F /  -18.7 °C 1032.1 in /  34946.9 hPa Calm     89 % 0.0 in /  0 mm
20:53 -0.1 °F /  -17.8 °C -1.6 °F /  -18.7 °C 1032.1 in /  34946.9 hPa Calm     90 % 0.0 in /  0 mm
20:58 -0.1 °F /  -17.8 °C -1.6 °F /  -18.7 °C 1032.1 in /  34946.9 hPa Calm     90 % 0.0 in /  0 mm
21:03 -0.1 °F /  -17.8 °C -1.6 °F /  -18.7 °C 1032.1 in /  34946.9 hPa Calm     90 % 0.0 in /  0 mm
21:08 -0.2 °F /  -17.9 °C -1.7 °F /  -18.7 °C 1032.1 in /  34946.9 hPa Calm     90 % 0.0 in /  0 mm
21:13 -0.2 °F /  -17.9 °C -1.7 °F /  -18.7 °C 1031.0 in /  34909.7 hPa Calm     90 % 0.0 in /  0 mm
21:18 -0.2 °F /  -17.9 °C -1.7 °F /  -18.7 °C 1031.0 in /  34909.7 hPa Calm     90 % 0.0 in /  0 mm
21:23 -0.2 °F /  -17.9 °C -1.7 °F /  -18.7 °C 1031.0 in /  34909.7 hPa Calm     90 % 0.0 in /  0 mm
21:28 -0.3 °F /  -17.9 °C -1.7 °F /  -18.7 °C 1031.0 in /  34909.7 hPa Calm     90 % 0.0 in /  0 mm
21:33 -0.3 °F /  -17.9 °C -1.7 °F /  -18.7 °C 1031.0 in /  34909.7 hPa Calm     90 % 0.0 in /  0 mm
21:38 -0.3 °F /  -17.9 °C -1.7 °F /  -18.7 °C 1031.0 in /  34909.7 hPa Calm     90 % 0.0 in /  0 mm
21:43 -0.4 °F /  -18 °C -1.8 °F /  -18.8 °C 1031.0 in /  34909.7 hPa Calm     90 % 0.0 in /  0 mm
21:48 -0.4 °F /  -18 °C -1.8 °F /  -18.8 °C 1031.0 in /  34909.7 hPa Calm     90 % 0.0 in /  0 mm
21:53 -0.3 °F /  -17.9 °C -1.7 °F /  -18.7 °C 1031.0 in /  34909.7 hPa Calm   3.2 mph /  5.1 km/h 90 % 0.0 in /  0 mm
21:58 -0.3 °F /  -17.9 °C -1.7 °F /  -18.7 °C 1031.0 in /  34909.7 hPa SW 1.0 mph /  1.6 km/h 3.5 mph /  5.6 km/h 90 % 0.0 in /  0 mm
22:04 -0.2 °F /  -17.9 °C -1.7 °F /  -18.7 °C 1031.0 in /  34909.7 hPa SW 0.8 mph /  1.3 km/h 3.5 mph /  5.6 km/h 90 % 0.0 in /  0 mm
22:08 -0.2 °F /  -17.9 °C -1.5 °F /  -18.6 °C 1031.0 in /  34909.7 hPa Calm     91 % 0.0 in /  0 mm
22:14 -0.3 °F /  -17.9 °C -1.6 °F /  -18.7 °C 1032.1 in /  34946.9 hPa Calm     91 % 0.0 in /  0 mm
22:19 -0.2 °F /  -17.9 °C -1.5 °F /  -18.6 °C 1032.1 in /  34946.9 hPa Calm     91 % 0.0 in /  0 mm
22:24 -0.2 °F /  -17.9 °C -1.5 °F /  -18.6 °C 1032.1 in /  34946.9 hPa Calm     91 % 0.0 in /  0 mm
22:29 -0.2 °F /  -17.9 °C -1.5 °F /  -18.6 °C 1031.0 in /  34909.7 hPa Calm     91 % 0.0 in /  0 mm
22:34 -0.2 °F /  -17.9 °C -1.5 °F /  -18.6 °C 1031.0 in /  34909.7 hPa Calm     91 % 0.0 in /  0 mm
22:39 -0.1 °F /  -17.8 °C -1.4 °F /  -18.6 °C 1031.0 in /  34909.7 hPa Calm     91 % 0.0 in /  0 mm
22:44 -0.1 °F /  -17.8 °C -1.4 °F /  -18.6 °C 1031.0 in /  34909.7 hPa Calm     91 % 0.0 in /  0 mm
22:49 0.0 °F /  -17.8 °C -1.2 °F /  -18.4 °C 1031.0 in /  34909.7 hPa Calm     92 % 0.0 in /  0 mm
22:54 0.0 °F /  -17.8 °C -1.2 °F /  -18.4 °C 1031.0 in /  34909.7 hPa Calm     92 % 0.0 in /  0 mm
22:59 0.1 °F /  -17.7 °C -1.1 °F /  -18.4 °C 1031.0 in /  34909.7 hPa Calm     92 % 0.0 in /  0 mm
23:04 0.1 °F /  -17.7 °C -1.1 °F /  -18.4 °C 1031.0 in /  34909.7 hPa Calm     92 % 0.0 in /  0 mm
23:09 0.1 °F /  -17.7 °C -1.1 °F /  -18.4 °C 1031.0 in /  34909.7 hPa Calm     92 % 0.0 in /  0 mm
23:14 0.2 °F /  -17.7 °C -0.9 °F /  -18.3 °C 1031.0 in /  34909.7 hPa Calm     92 % 0.0 in /  0 mm
23:19 0.2 °F /  -17.7 °C -0.9 °F /  -18.3 °C 1031.0 in /  34909.7 hPa Calm     92 % 0.0 in /  0 mm
23:24 0.2 °F /  -17.7 °C -0.9 °F /  -18.3 °C 1031.0 in /  34909.7 hPa Calm     92 % 0.0 in /  0 mm
23:29 0.3 °F /  -17.6 °C -0.7 °F /  -18.2 °C 1031.0 in /  34909.7 hPa Calm     93 % 0.0 in /  0 mm
23:34 0.3 °F /  -17.6 °C -0.7 °F /  -18.2 °C 1031.0 in /  34909.7 hPa Calm     93 % 0.0 in /  0 mm
23:39 0.4 °F /  -17.6 °C -0.6 °F /  -18.1 °C 1031.0 in /  34909.7 hPa Calm     93 % 0.0 in /  0 mm
23:44 0.4 °F /  -17.6 °C -0.6 °F /  -18.1 °C 1030.0 in /  34875.8 hPa Calm     93 % 0.0 in /  0 mm
23:49 0.4 °F /  -17.6 °C -0.6 °F /  -18.1 °C 1030.0 in /  34875.8 hPa Calm     93 % 0.0 in /  0 mm
23:54 0.5 °F /  -17.5 °C -0.5 °F /  -18.1 °C 1030.0 in /  34875.8 hPa Calm     93 % 0.0 in /  0 mm
23:59 0.5 °F /  -17.5 °C -0.5 °F /  -18.1 °C 1031.0 in /  34909.7 hPa Calm     93 % 0.0 in /  0 mm
Vremenska postaja Senovo
Podatki zbrani iz Weather Underground - 3 mb

Script developed by  Jim McMurry - jmcmurry@mwt.net Adapted for the template by  Wim van der Kuil - Leuven-Template.eu

Vremenski podatki so objavljeni na:

European Weather Network

WeatherCloud

Weather Underground

AWEKAS

HAMweather, WeatherForYou, PWS Weather

MapView

Geostik

Slovenia weather network

Oprema, ki se uporablja:

Vremenski program
Cumulus

Vremenski server
Asus

Cumulus

Asus